Time;durP1;ratioP1;P1;durP2;ratioP2;P2;SDS_P1;SDS_P2;PMS_P1;PMS_P2;Temp;Humidity;BMP_temperature;BMP_pressure;BME280_temperature;BME280_humidity;BME280_pressure;Samples;Min_cycle;Max_cycle;Signal;HPM_P1;HPM_P2
2023/12/06 00:01:18;;;;;;;7.22;4.22;;;5.00;93.50;;;;;;4984009;28;20254;-47
2023/12/06 00:03:46;;;;;;;7.40;4.70;;;5.00;93.50;;;;;;4973390;28;20191;-47
2023/12/06 00:06:16;;;;;;;6.90;4.50;;;5.00;93.40;;;;;;4987032;28;20225;-46
2023/12/06 00:08:52;;;;;;;6.65;3.70;;;5.00;93.90;;;;;;4983562;28;20234;-46
2023/12/06 00:11:20;;;;;;;6.63;4.57;;;5.00;93.30;;;;;;4982240;28;20219;-47
2023/12/06 00:13:48;;;;;;;4.75;3.70;;;5.00;93.40;;;;;;4990546;28;20701;-47
2023/12/06 00:16:20;;;;;;;6.30;4.90;;;5.00;93.30;;;;;;4989704;28;20218;-47
2023/12/06 00:18:49;;;;;;;8.38;4.25;;;5.00;93.30;;;;;;4983636;28;20211;-45
2023/12/06 00:21:17;;;;;;;6.55;4.15;;;5.00;93.50;;;;;;4986380;28;20635;-47
2023/12/06 00:23:46;;;;;;;6.00;3.72;;;5.00;93.40;;;;;;4983022;28;20201;-47
2023/12/06 00:26:14;;;;;;;5.45;4.13;;;5.00;93.40;;;;;;4984960;28;20649;-49
2023/12/06 00:28:42;;;;;;;5.55;4.03;;;5.00;93.40;;;;;;4979565;28;20269;-48
2023/12/06 00:31:10;;;;;;;7.95;4.75;;;5.00;93.30;;;;;;4985823;28;20223;-49
2023/12/06 00:33:38;;;;;;;6.18;4.57;;;5.00;93.30;;;;;;4990069;28;20225;-48
2023/12/06 00:36:09;;;;;;;6.88;4.70;;;5.00;93.30;;;;;;4987217;28;20224;-46
2023/12/06 00:38:37;;;;;;;5.80;4.10;;;5.00;93.50;;;;;;4988707;28;20210;-46
2023/12/06 00:41:07;;;;;;;6.38;3.78;;;5.00;93.40;;;;;;4978190;28;20219;-47
2023/12/06 00:43:35;;;;;;;6.80;3.97;;;5.00;93.30;;;;;;4989160;28;20294;-49
2023/12/06 00:46:06;;;;;;;7.55;3.97;;;5.00;93.30;;;;;;4982300;28;20261;-48
2023/12/06 00:48:34;;;;;;;9.00;5.05;;;5.00;93.30;;;;;;4990195;28;20254;-46
2023/12/06 00:51:02;;;;;;;4.55;3.67;;;5.00;93.30;;;;;;4981937;28;20218;-46
2023/12/06 00:53:31;;;;;;;4.85;3.78;;;5.00;93.30;;;;;;4991172;28;20194;-46
2023/12/06 00:55:59;;;;;;;4.65;3.28;;;5.00;93.30;;;;;;4987403;28;20214;-46
2023/12/06 01:01:15;;;;;;;5.53;4.15;;;5.00;93.20;;;;;;5181647;22;20256;-45
2023/12/06 01:03:43;;;;;;;7.90;5.13;;;5.00;93.20;;;;;;5009818;28;20210;-45
2023/12/06 01:06:11;;;;;;;6.60;4.40;;;5.00;93.30;;;;;;5002365;28;20634;-44
2023/12/06 01:08:39;;;;;;;5.90;4.53;;;5.00;93.30;;;;;;5005589;28;20711;-45
2023/12/06 01:11:07;;;;;;;8.00;5.15;;;5.00;93.20;;;;;;4989528;28;20206;-46
2023/12/06 01:13:35;;;;;;;7.80;5.20;;;5.00;93.20;;;;;;5006320;28;20614;-45
2023/12/06 01:16:03;;;;;;;5.78;4.25;;;5.00;93.30;;;;;;4997693;28;20238;-45
2023/12/06 01:18:33;;;;;;;5.65;4.00;;;5.00;93.30;;;;;;5005841;28;20206;-46
2023/12/06 01:21:05;;;;;;;5.95;4.07;;;5.00;93.30;;;;;;4998948;28;20222;-45
2023/12/06 01:23:33;;;;;;;6.72;4.85;;;5.00;93.30;;;;;;5007508;28;20259;-45
2023/12/06 01:26:01;;;;;;;7.70;4.50;;;5.00;93.30;;;;;;5000213;28;20221;-45
2023/12/06 01:28:29;;;;;;;5.90;4.38;;;5.00;93.20;;;;;;5005896;28;20301;-45
2023/12/06 01:30:57;;;;;;;7.22;4.75;;;5.00;93.20;;;;;;4994408;28;20284;-45
2023/12/06 01:33:25;;;;;;;8.75;6.40;;;5.00;93.30;;;;;;5006645;28;20194;-45
2023/12/06 01:35:55;;;;;;;7.45;5.10;;;5.00;93.30;;;;;;5003262;28;20232;-45
2023/12/06 01:38:23;;;;;;;7.93;4.30;;;5.10;93.30;;;;;;5002700;28;20241;-45
2023/12/06 01:40:51;;;;;;;7.35;4.85;;;5.00;93.20;;;;;;5006642;28;20634;-45
2023/12/06 01:43:22;;;;;;;6.15;4.22;;;5.00;93.20;;;;;;5003016;28;20655;-45
2023/12/06 01:45:51;;;;;;;7.10;5.18;;;5.00;93.20;;;;;;5008306;28;20227;-45
2023/12/06 01:48:21;;;;;;;8.27;5.00;;;5.00;93.20;;;;;;5008412;28;20231;-45
2023/12/06 01:50:51;;;;;;;9.85;5.43;;;5.00;93.30;;;;;;4998591;28;20423;-44
2023/12/06 01:53:20;;;;;;;7.15;4.85;;;5.00;93.20;;;;;;5006653;28;20205;-45
2023/12/06 01:55:49;;;;;;;6.72;5.28;;;5.00;93.20;;;;;;5007036;28;20221;-45
2023/12/06 01:58:18;;;;;;;10.40;6.18;;;5.00;93.20;;;;;;5005990;28;20209;-45
2023/12/06 02:00:47;;;;;;;6.90;5.00;;;5.00;93.20;;;;;;4993569;28;20233;-45
2023/12/06 02:03:16;;;;;;;7.22;6.00;;;5.00;93.20;;;;;;5008771;28;20605;-46
2023/12/06 02:05:45;;;;;;;13.95;8.35;;;5.10;93.30;;;;;;5007111;28;20722;-44
2023/12/06 02:08:13;;;;;;;8.57;5.90;;;5.10;93.30;;;;;;5005137;28;20688;-45
2023/12/06 02:10:43;;;;;;;10.40;6.10;;;5.00;93.30;;;;;;5007534;28;20365;-45
2023/12/06 02:13:12;;;;;;;8.65;5.97;;;5.00;93.30;;;;;;5003869;28;20194;-45
2023/12/06 02:15:40;;;;;;;8.27;5.68;;;5.00;93.20;;;;;;5006193;28;20330;-45
2023/12/06 02:18:08;;;;;;;10.55;6.25;;;5.00;93.30;;;;;;5000011;28;20727;-44
2023/12/06 02:20:37;;;;;;;10.32;5.90;;;5.00;93.20;;;;;;4997734;28;20226;-45
2023/12/06 02:23:07;;;;;;;8.35;5.38;;;5.00;93.30;;;;;;5006106;28;20210;-45
2023/12/06 02:25:37;;;;;;;8.85;6.93;;;5.00;93.20;;;;;;4998985;28;20276;-45
2023/12/06 02:28:05;;;;;;;11.63;7.45;;;5.00;93.30;;;;;;5001014;28;20244;-45
2023/12/06 02:30:33;;;;;;;12.25;8.95;;;5.00;93.20;;;;;;4998831;28;20253;-45
2023/12/06 02:33:01;;;;;;;9.98;6.65;;;5.00;93.20;;;;;;5003583;28;20194;-45
2023/12/06 02:35:34;;;;;;;9.93;6.75;;;5.00;93.20;;;;;;5007841;28;20221;-44
2023/12/06 02:38:03;;;;;;;11.05;8.18;;;5.00;93.20;;;;;;5006140;28;20241;-45
2023/12/06 02:40:32;;;;;;;9.75;6.88;;;5.00;93.20;;;;;;5009277;28;20238;-44
2023/12/06 02:43:05;;;;;;;11.70;7.40;;;5.00;93.20;;;;;;5006199;28;20194;-45
2023/12/06 02:45:33;;;;;;;10.10;6.70;;;5.00;93.20;;;;;;5004323;28;20237;-45
2023/12/06 02:48:05;;;;;;;11.48;7.32;;;5.00;93.20;;;;;;5012009;28;20245;-46
2023/12/06 02:50:33;;;;;;;10.85;6.95;;;5.00;93.20;;;;;;4995415;28;20238;-44
2023/12/06 02:53:01;;;;;;;9.48;7.18;;;5.00;93.20;;;;;;5011724;28;20182;-45
2023/12/06 02:55:29;;;;;;;10.18;6.20;;;5.00;93.30;;;;;;5003284;28;20284;-45
2023/12/06 02:57:57;;;;;;;11.18;6.90;;;5.00;93.20;;;;;;5005650;28;20218;-44
2023/12/06 03:00:26;;;;;;;10.27;7.25;;;5.00;93.30;;;;;;5010718;28;20222;-45
2023/12/06 03:02:54;;;;;;;7.95;6.32;;;5.00;93.20;;;;;;5007279;28;20241;-45
2023/12/06 03:05:22;;;;;;;8.38;6.00;;;5.00;93.20;;;;;;5002367;28;20217;-45
2023/12/06 03:07:54;;;;;;;9.65;7.43;;;5.00;93.20;;;;;;5010448;28;20269;-45
2023/12/06 03:10:22;;;;;;;11.82;7.40;;;5.00;93.20;;;;;;5003459;28;20260;-44
2023/12/06 03:12:51;;;;;;;9.15;6.70;;;5.10;93.20;;;;;;4994978;28;20223;-45
2023/12/06 03:15:19;;;;;;;13.25;8.15;;;5.00;93.20;;;;;;4993412;28;20226;-45
2023/12/06 03:17:48;;;;;;;9.30;6.70;;;5.00;93.20;;;;;;4999569;28;20221;-45
2023/12/06 03:20:17;;;;;;;11.30;7.53;;;5.00;93.20;;;;;;5003398;28;20221;-44
2023/12/06 03:22:45;;;;;;;8.93;6.43;;;5.00;93.20;;;;;;5001571;28;20243;-44
2023/12/06 03:25:13;;;;;;;8.75;6.97;;;5.00;93.20;;;;;;5009547;28;20217;-45
2023/12/06 03:27:42;;;;;;;11.48;7.53;;;5.00;93.20;;;;;;5002310;28;20228;-45
2023/12/06 03:30:11;;;;;;;10.55;7.32;;;5.00;93.20;;;;;;5009212;28;20218;-45
2023/12/06 03:32:56;;;;;;;7.90;6.25;;;5.00;93.10;;;;;;5004005;28;20202;-45
2023/12/06 03:35:29;;;;;;;9.98;6.65;;;5.00;93.10;;;;;;5008822;28;20733;-45
2023/12/06 03:37:57;;;;;;;10.27;8.35;;;5.00;93.10;;;;;;5010102;28;20248;-45
2023/12/06 03:40:25;;;;;;;9.00;6.95;;;5.00;93.20;;;;;;5009680;28;20635;-45
2023/12/06 03:42:56;;;;;;;8.85;6.38;;;5.00;93.20;;;;;;5011327;28;20439;-45
2023/12/06 03:45:27;;;;;;;10.77;7.32;;;5.00;93.10;;;;;;5002075;28;20221;-45
2023/12/06 03:47:55;;;;;;;11.25;7.97;;;5.00;93.70;;;;;;5010404;28;20691;-45
2023/12/06 03:50:23;;;;;;;9.80;6.80;;;5.00;93.20;;;;;;4996743;28;20273;-44
2023/12/06 03:52:53;;;;;;;10.60;7.35;;;5.00;93.10;;;;;;5010207;28;20598;-45
2023/12/06 03:55:21;;;;;;;11.27;7.32;;;5.00;93.10;;;;;;5009872;28;20566;-45
2023/12/06 03:57:49;;;;;;;11.15;7.97;;;5.00;93.10;;;;;;5005002;28;20282;-45
2023/12/06 04:00:17;;;;;;;12.35;8.30;;;5.10;93.20;;;;;;5003101;28;20233;-45
2023/12/06 04:02:45;;;;;;;8.75;6.03;;;5.00;93.20;;;;;;5008930;28;20612;-45
2023/12/06 04:05:16;;;;;;;9.05;6.82;;;5.00;93.10;;;;;;5005117;28;20229;-45
2023/12/06 04:07:46;;;;;;;7.57;5.85;;;5.00;93.10;;;;;;5009736;28;20304;-45
2023/12/06 04:10:14;;;;;;;9.55;6.10;;;5.00;93.10;;;;;;5009985;28;20230;-45
2023/12/06 04:12:43;;;;;;;10.23;7.05;;;5.00;93.10;;;;;;5004005;28;20198;-45
2023/12/06 04:15:14;;;;;;;11.27;7.65;;;5.00;93.10;;;;;;5003152;28;20233;-45
2023/12/06 04:17:45;;;;;;;11.02;7.35;;;5.00;93.10;;;;;;5009344;28;20280;-45
2023/12/06 04:20:13;;;;;;;6.80;5.53;;;5.00;93.10;;;;;;5004699;28;20770;-45
2023/12/06 04:22:43;;;;;;;10.07;7.10;;;5.00;93.10;;;;;;5001736;28;20197;-45
2023/12/06 04:25:27;;;;;;;7.55;5.80;;;5.00;93.10;;;;;;5410959;22;20550;31
2023/12/06 04:27:55;;;;;;;9.07;6.18;;;5.00;93.10;;;;;;4939157;28;20216;-48
2023/12/06 04:30:23;;;;;;;7.72;6.10;;;5.00;93.10;;;;;;4930153;28;20754;-45
2023/12/06 04:32:51;;;;;;;8.25;6.82;;;5.00;93.10;;;;;;4932436;29;20203;-47
2023/12/06 04:35:22;;;;;;;8.27;6.68;;;5.00;93.10;;;;;;4927645;28;20232;-46
2023/12/06 04:37:52;;;;;;;9.75;6.80;;;5.00;93.10;;;;;;4926183;29;20304;-46
2023/12/06 04:40:20;;;;;;;8.45;6.50;;;5.00;93.10;;;;;;4931051;29;20292;-48
2023/12/06 04:42:48;;;;;;;10.90;7.57;;;5.00;93.10;;;;;;4924406;29;20189;-46
2023/12/06 04:45:16;;;;;;;10.52;7.57;;;5.00;93.20;;;;;;4931829;29;20213;-46
2023/12/06 04:47:49;;;;;;;9.35;6.82;;;5.00;93.20;;;;;;4931210;29;20224;-45
2023/12/06 04:50:17;;;;;;;9.50;7.13;;;5.00;93.20;;;;;;4927339;29;20217;-48
2023/12/06 04:52:45;;;;;;;8.18;6.35;;;5.00;93.20;;;;;;4931753;29;20204;-48
2023/12/06 04:55:17;;;;;;;9.25;6.55;;;5.00;93.10;;;;;;4931957;29;20288;-49
2023/12/06 04:57:45;;;;;;;9.57;7.60;;;5.00;93.10;;;;;;4920841;29;20224;-47
2023/12/06 05:00:15;;;;;;;8.70;6.90;;;5.00;93.10;;;;;;4930760;29;20517;-47
2023/12/06 05:02:48;;;;;;;9.60;6.90;;;5.00;93.10;;;;;;4931995;29;20198;-46
2023/12/06 05:05:18;;;;;;;10.52;6.72;;;5.10;93.10;;;;;;4924910;29;20707;-46
2023/12/06 05:07:49;;;;;;;8.18;5.28;;;5.00;93.10;;;;;;4925259;29;20228;-46
2023/12/06 05:10:18;;;;;;;10.00;6.93;;;5.00;93.10;;;;;;4931288;29;20694;-46
2023/12/06 05:12:46;;;;;;;9.95;6.18;;;5.00;93.10;;;;;;4926838;29;20620;-46
2023/12/06 05:15:15;;;;;;;8.43;5.70;;;5.00;93.10;;;;;;4927768;29;20220;-49
2023/12/06 05:17:43;;;;;;;9.10;7.20;;;5.10;93.10;;;;;;4924624;29;20299;-46
2023/12/06 05:20:12;;;;;;;8.45;6.10;;;5.00;93.10;;;;;;4926749;29;20576;-47
2023/12/06 05:22:40;;;;;;;9.93;6.18;;;5.10;93.10;;;;;;4930227;29;20228;-47
2023/12/06 05:25:08;;;;;;;8.05;5.65;;;5.00;93.10;;;;;;4930787;29;20287;-45
2023/12/06 05:27:37;;;;;;;9.70;6.35;;;5.00;93.10;;;;;;4919062;29;20232;-45
2023/12/06 05:30:07;;;;;;;7.63;5.28;;;5.10;93.10;;;;;;4923385;29;20560;-47
2023/12/06 05:32:36;;;;;;;6.90;5.25;;;5.00;93.20;;;;;;4929932;29;20240;-46
2023/12/06 05:35:06;;;;;;;10.73;6.75;;;5.00;93.10;;;;;;4924081;29;20307;-47
2023/12/06 05:37:34;;;;;;;7.25;6.03;;;5.00;93.10;;;;;;4931147;29;20200;-45
2023/12/06 05:40:04;;;;;;;7.90;6.30;;;5.00;93.10;;;;;;4931358;29;20272;-47
2023/12/06 05:42:32;;;;;;;9.35;7.13;;;5.00;93.10;;;;;;4926904;29;20693;-46
2023/12/06 05:45:02;;;;;;;8.45;6.55;;;5.00;93.20;;;;;;4930029;29;20235;-48
2023/12/06 05:47:30;;;;;;;10.07;7.80;;;5.00;93.10;;;;;;4931698;29;20227;-46
2023/12/06 05:49:58;;;;;;;7.63;5.95;;;5.00;93.10;;;;;;4925291;29;20288;-46
2023/12/06 05:52:26;;;;;;;9.27;5.95;;;5.00;93.10;;;;;;4927923;29;20219;-46
2023/12/06 05:54:54;;;;;;;8.43;6.45;;;5.10;93.10;;;;;;4922551;29;20296;-47
2023/12/06 05:57:25;;;;;;;10.93;7.15;;;5.10;93.10;;;;;;4926380;29;20288;-48
2023/12/06 05:59:55;;;;;;;7.15;5.60;;;5.00;93.10;;;;;;4930669;29;20228;-46
2023/12/06 06:02:25;;;;;;;8.52;6.30;;;5.00;93.10;;;;;;4928251;29;20192;-46
2023/12/06 06:04:53;;;;;;;8.50;7.60;;;5.00;93.10;;;;;;4930968;29;20228;-46
2023/12/06 06:07:21;;;;;;;8.43;6.63;;;5.00;93.10;;;;;;4933751;29;20204;-45
2023/12/06 06:09:51;;;;;;;7.45;5.45;;;5.00;93.10;;;;;;4934220;29;20219;-45
2023/12/06 06:12:28;;;;;;;8.13;5.70;;;5.00;93.10;;;;;;4928691;29;20216;-45
2023/12/06 06:14:56;;;;;;;8.65;6.57;;;5.00;93.10;;;;;;4930995;29;20220;-46
2023/12/06 06:17:26;;;;;;;7.57;5.55;;;5.00;93.10;;;;;;4934816;29;20193;-49
2023/12/06 06:19:55;;;;;;;9.27;6.25;;;5.00;93.10;;;;;;4933706;29;20252;-46
2023/12/06 06:22:23;;;;;;;8.40;5.95;;;5.00;93.10;;;;;;4932040;29;20196;-46
2023/12/06 06:24:51;;;;;;;6.90;5.43;;;5.00;93.10;;;;;;4928327;29;20197;-45
2023/12/06 06:27:19;;;;;;;7.32;5.65;;;5.10;93.20;;;;;;4929415;29;20303;-46
2023/12/06 06:29:47;;;;;;;8.25;5.93;;;5.00;93.10;;;;;;4934171;29;20635;-45
2023/12/06 06:32:16;;;;;;;8.32;6.10;;;5.00;93.20;;;;;;4934647;29;20217;-46
2023/12/06 06:34:45;;;;;;;6.78;5.60;;;5.00;93.10;;;;;;4934728;29;20220;-45
2023/12/06 06:37:14;;;;;;;6.78;5.40;;;5.00;93.10;;;;;;4929647;29;20205;-44
2023/12/06 06:39:42;;;;;;;7.90;5.82;;;5.10;93.10;;;;;;4933254;29;20205;-45
2023/12/06 06:42:10;;;;;;;9.73;6.82;;;5.00;93.10;;;;;;4931953;29;20185;-44
2023/12/06 06:44:40;;;;;;;8.45;6.60;;;5.00;93.10;;;;;;4930150;29;20197;-43
2023/12/06 06:47:23;;;;;;;8.85;6.38;;;5.00;93.10;;;;;;4934544;29;20655;-45
2023/12/06 06:49:54;;;;;;;7.00;5.20;;;5.00;93.20;;;;;;4926280;29;20193;-44
2023/12/06 06:52:22;;;;;;;7.97;5.60;;;5.00;93.10;;;;;;4932414;29;20211;-43
2023/12/06 06:54:51;;;;;;;8.40;5.82;;;5.10;93.10;;;;;;4927865;29;20284;-44
2023/12/06 06:57:19;;;;;;;5.82;5.00;;;5.00;93.10;;;;;;4932353;29;20212;-46
2023/12/06 06:59:47;;;;;;;9.25;7.60;;;5.00;93.10;;;;;;4933657;29;20208;-44
2023/12/06 07:02:16;;;;;;;7.72;5.63;;;5.10;93.20;;;;;;4934409;29;20284;-44
2023/12/06 07:04:45;;;;;;;8.70;6.90;;;5.00;93.10;;;;;;4930784;29;20249;-44
2023/12/06 07:07:14;;;;;;;8.27;5.88;;;5.00;93.10;;;;;;4934099;29;20552;-47
2023/12/06 07:09:43;;;;;;;7.53;5.45;;;5.00;93.10;;;;;;4933662;29;20760;-45
2023/12/06 07:12:13;;;;;;;8.55;7.07;;;5.00;93.10;;;;;;4928067;29;20224;-44
2023/12/06 07:14:42;;;;;;;6.13;4.95;;;5.00;93.10;;;;;;4932798;29;20288;-44
2023/12/06 07:17:10;;;;;;;6.30;5.40;;;5.00;93.10;;;;;;4934042;29;20541;-45
2023/12/06 07:19:38;;;;;;;7.63;6.00;;;5.00;93.10;;;;;;4918628;29;20639;-46
2023/12/06 07:22:07;;;;;;;7.18;5.40;;;5.00;93.10;;;;;;4927688;29;20256;-44
2023/12/06 07:24:36;;;;;;;9.43;5.97;;;5.00;93.10;;;;;;4930527;29;20193;-44
2023/12/06 07:27:05;;;;;;;5.40;4.28;;;5.10;93.20;;;;;;4926112;29;20586;-45
2023/12/06 07:29:33;;;;;;;9.70;6.40;;;5.00;93.10;;;;;;4929080;29;20699;-45
2023/12/06 07:32:01;;;;;;;6.95;6.20;;;5.00;93.10;;;;;;4924612;29;20526;-44
2023/12/06 07:34:29;;;;;;;6.03;5.03;;;5.00;93.10;;;;;;4927992;29;20209;-46
2023/12/06 07:37:10;;;;;;;7.55;5.40;;;5.00;93.20;;;;;;4925227;29;20239;-46
2023/12/06 07:39:40;;;;;;;7.70;5.13;;;5.00;93.10;;;;;;4924876;29;20644;-45
2023/12/06 07:42:09;;;;;;;6.78;6.07;;;5.00;93.10;;;;;;4924712;29;20189;-45
2023/12/06 07:44:38;;;;;;;6.75;5.00;;;5.10;93.20;;;;;;4931234;29;20640;-44
2023/12/06 07:47:06;;;;;;;7.60;4.60;;;5.10;93.20;;;;;;4933879;29;20679;-47
2023/12/06 07:49:34;;;;;;;7.82;5.32;;;5.00;93.10;;;;;;4933349;29;20232;-47
2023/12/06 07:52:02;;;;;;;8.60;5.30;;;5.00;93.10;;;;;;4926773;29;20224;-47
2023/12/06 07:54:30;;;;;;;7.88;5.53;;;5.00;93.10;;;;;;4932094;29;20205;-45
2023/12/06 07:57:00;;;;;;;8.73;6.30;;;5.00;93.10;;;;;;4908244;29;20225;-45
2023/12/06 07:59:28;;;;;;;7.10;4.55;;;5.00;93.20;;;;;;4913979;29;20232;-46
2023/12/06 08:01:56;;;;;;;5.78;4.40;;;5.10;93.20;;;;;;4910847;29;20211;-46
2023/12/06 08:04:25;;;;;;;5.63;5.00;;;5.00;93.10;;;;;;4912573;29;20212;-47
2023/12/06 08:06:53;;;;;;;9.25;5.90;;;5.00;93.10;;;;;;4930609;28;20220;-45
2023/12/06 08:09:22;;;;;;;5.68;4.70;;;5.00;93.10;;;;;;4931761;29;20216;-45
2023/12/06 08:11:51;;;;;;;7.70;5.13;;;5.00;93.10;;;;;;4929337;29;20646;-44
2023/12/06 08:14:20;;;;;;;8.60;6.25;;;5.10;93.10;;;;;;4933566;29;20615;-45
2023/12/06 08:16:51;;;;;;;5.88;5.28;;;5.00;93.10;;;;;;4932642;29;20216;-45
2023/12/06 08:19:19;;;;;;;6.32;5.18;;;5.10;93.10;;;;;;4929807;29;20264;-45
2023/12/06 08:21:50;;;;;;;5.90;4.38;;;5.10;93.10;;;;;;4927228;29;20355;-45
2023/12/06 08:24:18;;;;;;;8.20;6.32;;;5.00;93.10;;;;;;4932564;29;20188;-44
2023/12/06 08:26:46;;;;;;;7.03;5.05;;;5.00;93.20;;;;;;4927283;29;20567;-43
2023/12/06 08:29:14;;;;;;;6.30;5.25;;;5.00;93.10;;;;;;4932343;29;20221;-46
2023/12/06 08:31:44;;;;;;;7.85;4.65;;;5.00;93.20;;;;;;4929717;29;20221;-44
2023/12/06 08:34:12;;;;;;;5.93;4.63;;;5.00;93.10;;;;;;4933034;29;20195;-45
2023/12/06 08:36:42;;;;;;;6.25;5.05;;;5.00;93.10;;;;;;4928722;29;20229;-47
2023/12/06 08:39:11;;;;;;;9.02;6.88;;;5.00;93.10;;;;;;4930823;29;20721;-45
2023/12/06 08:41:42;;;;;;;5.75;5.03;;;5.00;93.20;;;;;;4926982;29;20678;-44
2023/12/06 08:44:10;;;;;;;7.60;5.75;;;5.00;93.10;;;;;;4933081;29;20244;-44
2023/12/06 08:46:38;;;;;;;7.50;5.30;;;5.00;93.20;;;;;;4932141;29;20643;-44
2023/12/06 08:49:07;;;;;;;7.40;5.10;;;5.00;93.20;;;;;;4930399;29;20229;-44
2023/12/06 08:51:35;;;;;;;6.63;5.38;;;5.00;93.20;;;;;;4926742;29;20245;-44
2023/12/06 08:54:04;;;;;;;8.10;5.32;;;5.10;93.10;;;;;;4947210;28;20215;-44
2023/12/06 08:56:32;;;;;;;7.93;5.88;;;5.00;93.10;;;;;;4927042;29;20635;-44
2023/12/06 08:59:03;;;;;;;7.30;5.10;;;5.00;93.10;;;;;;4932017;29;20243;-45
2023/12/06 09:01:31;;;;;;;5.63;4.68;;;5.00;93.20;;;;;;4931560;29;20216;-45
2023/12/06 09:03:59;;;;;;;5.75;4.75;;;5.00;93.10;;;;;;4930818;29;20212;-47
2023/12/06 09:06:29;;;;;;;6.10;4.97;;;5.00;93.20;;;;;;4928885;29;20313;-49
2023/12/06 09:08:57;;;;;;;6.85;5.45;;;5.10;93.10;;;;;;4924673;29;20295;-45
2023/12/06 09:11:25;;;;;;;6.70;5.40;;;5.10;93.20;;;;;;4924565;29;20236;-47
2023/12/06 09:13:53;;;;;;;7.15;5.13;;;5.10;93.20;;;;;;4931681;29;20311;-44
2023/12/06 09:16:21;;;;;;;7.50;5.25;;;5.10;93.10;;;;;;4931257;29;20208;-49
2023/12/06 09:18:49;;;;;;;7.53;6.05;;;5.00;93.20;;;;;;4930800;29;20216;-45
2023/12/06 09:21:17;;;;;;;6.32;5.10;;;5.00;93.20;;;;;;4928260;29;20224;-44
2023/12/06 09:23:47;;;;;;;6.68;5.03;;;5.00;93.20;;;;;;4929619;29;20659;-48
2023/12/06 09:26:15;;;;;;;6.03;5.25;;;5.00;93.20;;;;;;4925040;29;20635;-44
2023/12/06 09:28:43;;;;;;;5.95;4.13;;;5.00;93.10;;;;;;4929798;29;20235;-45
2023/12/06 09:31:14;;;;;;;6.07;4.75;;;5.10;93.20;;;;;;4929315;29;20224;-45
2023/12/06 09:33:43;;;;;;;7.00;6.00;;;5.10;93.60;;;;;;4928834;29;20712;-44
2023/12/06 09:36:11;;;;;;;8.15;5.30;;;5.00;93.30;;;;;;4927230;29;20721;-44
2023/12/06 09:38:39;;;;;;;6.13;4.40;;;5.00;93.20;;;;;;4932490;29;20220;-44
2023/12/06 09:41:09;;;;;;;6.15;5.22;;;5.10;93.10;;;;;;4931120;28;20303;-43
2023/12/06 09:43:39;;;;;;;6.20;5.20;;;5.10;93.10;;;;;;4936109;29;20196;-45
2023/12/06 09:46:07;;;;;;;6.82;4.57;;;5.10;93.20;;;;;;4933206;29;20224;-45
2023/12/06 09:48:35;;;;;;;6.85;4.90;;;5.10;93.20;;;;;;4935577;29;20241;-44
2023/12/06 09:51:04;;;;;;;6.60;4.70;;;5.10;93.20;;;;;;4932724;29;20220;-44
2023/12/06 09:53:32;;;;;;;5.20;4.15;;;5.10;93.10;;;;;;4935939;29;20213;-46
2023/12/06 09:56:01;;;;;;;7.38;5.47;;;5.10;93.10;;;;;;4930537;29;20267;-46
2023/12/06 09:58:30;;;;;;;5.35;4.40;;;5.10;93.10;;;;;;4933808;29;20275;-50
2023/12/06 10:00:59;;;;;;;5.13;4.40;;;5.10;93.70;;;;;;4929631;29;20224;-45
2023/12/06 10:03:28;;;;;;;4.93;4.45;;;5.10;93.20;;;;;;4934189;29;20276;-44
2023/12/06 10:05:57;;;;;;;5.90;4.63;;;5.10;93.10;;;;;;4932840;29;20229;-45
2023/12/06 10:08:26;;;;;;;5.18;4.45;;;5.10;93.10;;;;;;4930208;29;20220;-45
2023/12/06 10:11:01;;;;;;;5.47;4.47;;;5.10;93.10;;;;;;4930689;29;20344;-45
2023/12/06 10:13:35;;;;;;;4.82;4.30;;;5.10;93.10;;;;;;4925369;29;20216;-50
2023/12/06 10:16:13;;;;;;;6.57;4.65;;;5.10;93.10;;;;;;4934888;29;20205;-45
2023/12/06 10:18:41;;;;;;;6.53;4.68;;;5.10;93.20;;;;;;4931971;29;20255;-46
2023/12/06 10:21:12;;;;;;;5.28;4.50;;;5.10;93.10;;;;;;4927592;29;20484;-45
2023/12/06 10:23:41;;;;;;;7.35;5.30;;;5.10;93.20;;;;;;4931608;29;20205;-45
2023/12/06 10:26:14;;;;;;;5.18;4.40;;;5.10;93.20;;;;;;4903473;29;20216;-45
2023/12/06 10:28:46;;;;;;;4.65;3.97;;;5.10;93.10;;;;;;4931790;29;20470;-45
2023/12/06 10:31:14;;;;;;;6.43;5.20;;;5.10;93.20;;;;;;4910565;29;20228;-47
2023/12/06 10:33:43;;;;;;;6.65;5.45;;;5.10;93.30;;;;;;4916503;28;20568;-44
2023/12/06 10:36:13;;;;;;;6.30;4.25;;;5.10;93.20;;;;;;4934195;29;20406;-45
2023/12/06 10:38:43;;;;;;;5.93;4.82;;;5.10;93.10;;;;;;4928481;29;20225;-45
2023/12/06 10:41:13;;;;;;;5.40;4.05;;;5.10;93.30;;;;;;4929975;29;20233;-47
2023/12/06 10:43:42;;;;;;;5.65;3.90;;;5.10;93.30;;;;;;4931182;29;20334;-48
2023/12/06 10:46:12;;;;;;;8.45;4.72;;;5.10;93.20;;;;;;4934607;29;20728;-45
2023/12/06 10:48:41;;;;;;;5.43;4.35;;;5.10;93.20;;;;;;4932101;29;20228;-44
2023/12/06 10:51:13;;;;;;;6.43;4.93;;;5.10;93.30;;;;;;4931977;29;20201;-47
2023/12/06 10:53:43;;;;;;;6.00;4.78;;;5.10;93.30;;;;;;4932353;29;20319;-44
2023/12/06 10:56:14;;;;;;;7.28;5.72;;;5.10;93.30;;;;;;4928788;29;20256;-46
2023/12/06 10:58:43;;;;;;;5.53;4.40;;;5.10;93.40;;;;;;4931896;29;20235;-45
2023/12/06 11:01:14;;;;;;;5.65;4.70;;;5.10;93.40;;;;;;4934552;29;20604;-45
2023/12/06 11:03:43;;;;;;;5.75;4.55;;;5.10;93.30;;;;;;4932565;29;20227;-45
2023/12/06 11:06:23;;;;;;;9.25;5.38;;;5.10;93.30;;;;;;4930901;29;20197;-45
2023/12/06 11:09:09;;;;;;;6.78;4.68;;;5.10;93.30;;;;;;4932836;29;20221;-47
2023/12/06 11:11:54;;;;;;;5.57;5.00;;;5.20;93.30;;;;;;4929453;29;20670;-44
2023/12/06 11:14:38;;;;;;;8.15;5.40;;;5.20;93.40;;;;;;4933395;29;20220;-46
2023/12/06 11:17:23;;;;;;;5.22;4.60;;;5.20;93.20;;;;;;4928760;29;20193;-45
2023/12/06 11:19:52;;;;;;;6.35;4.25;;;5.20;93.30;;;;;;4929921;29;20227;-45
2023/12/06 11:22:23;;;;;;;6.75;4.90;;;5.20;93.20;;;;;;4931356;29;20208;-45
2023/12/06 11:24:52;;;;;;;6.70;5.50;;;5.20;93.20;;;;;;4933862;29;20312;-45
2023/12/06 11:27:21;;;;;;;6.82;4.15;;;5.20;93.40;;;;;;4931845;29;20208;-45
2023/12/06 11:29:50;;;;;;;6.13;4.78;;;5.20;93.20;;;;;;4933951;29;20232;-46
2023/12/06 11:32:20;;;;;;;5.57;4.57;;;5.20;93.20;;;;;;4933986;29;20201;-45
2023/12/06 11:34:56;;;;;;;6.63;4.90;;;5.20;93.20;;;;;;4930582;29;20213;-46
2023/12/06 11:37:27;;;;;;;5.20;4.50;;;5.20;93.30;;;;;;4928762;29;20200;-46
2023/12/06 11:40:17;;;;;;;9.68;4.13;;;5.20;93.20;;;;;;4933435;29;20201;-45
2023/12/06 11:42:59;;;;;;;5.50;4.20;;;5.20;93.10;;;;;;4929772;29;20224;-44
2023/12/06 11:45:28;;;;;;;5.80;4.15;;;5.20;93.10;;;;;;4933895;29;20679;-45
2023/12/06 11:48:00;;;;;;;5.85;4.40;;;5.20;93.10;;;;;;4925014;29;20323;-44
2023/12/06 11:50:30;;;;;;;5.40;4.10;;;5.30;93.10;;;;;;4931552;29;20202;-44
2023/12/06 11:53:02;;;;;;;5.70;4.03;;;5.20;93.10;;;;;;4930757;29;20216;-45
2023/12/06 11:55:33;;;;;;;5.13;4.43;;;5.20;93.10;;;;;;4935547;29;20694;-48
2023/12/06 11:58:08;;;;;;;6.68;4.55;;;5.20;93.10;;;;;;4934263;29;20707;-45
2023/12/06 12:00:40;;;;;;;6.15;4.78;;;5.30;93.50;;;;;;4933993;29;20640;-46
2023/12/06 12:03:10;;;;;;;6.97;5.10;;;5.20;93.40;;;;;;4925055;29;20217;-46
2023/12/06 12:05:38;;;;;;;5.90;5.30;;;5.20;93.50;;;;;;4933581;29;20211;-47
2023/12/06 12:08:07;;;;;;;7.18;5.35;;;5.20;93.50;;;;;;4929278;29;20220;-47
2023/12/06 12:10:37;;;;;;;5.43;4.30;;;5.20;93.50;;;;;;4925968;29;20729;-44
2023/12/06 12:13:05;;;;;;;6.78;5.53;;;5.20;93.50;;;;;;4927127;29;20643;-47
2023/12/06 12:15:33;;;;;;;7.75;4.45;;;5.20;93.60;;;;;;4933800;29;20213;-45
2023/12/06 12:18:02;;;;;;;7.40;5.22;;;5.20;93.60;;;;;;4930911;29;20236;-46
2023/12/06 12:20:37;;;;;;;6.20;5.47;;;5.20;93.70;;;;;;4930592;29;20571;-46
2023/12/06 12:23:05;;;;;;;8.93;5.63;;;5.20;93.70;;;;;;4933563;29;20635;-48
2023/12/06 12:25:33;;;;;;;9.35;5.32;;;5.20;93.70;;;;;;4931876;29;20193;-46
2023/12/06 12:28:04;;;;;;;5.90;4.28;;;5.20;93.70;;;;;;4928978;29;20722;-45
2023/12/06 12:30:36;;;;;;;8.05;5.25;;;5.20;93.60;;;;;;4932164;29;20197;-45
2023/12/06 12:33:08;;;;;;;5.47;4.22;;;5.20;93.60;;;;;;4932196;29;20223;-45
2023/12/06 12:35:40;;;;;;;6.38;5.05;;;5.20;93.60;;;;;;4927801;29;20224;-45
2023/12/06 12:38:09;;;;;;;7.05;5.15;;;5.20;93.60;;;;;;4930478;29;20781;-45
2023/12/06 12:40:38;;;;;;;10.13;7.78;;;5.20;93.80;;;;;;4930587;29;20726;-45
2023/12/06 12:43:06;;;;;;;9.40;7.35;;;5.20;95.70;;;;;;4919026;29;20220;-44
2023/12/06 12:45:35;;;;;;;11.95;7.82;;;5.20;95.30;;;;;;4926141;29;20628;-44
2023/12/06 12:48:04;;;;;;;11.45;7.18;;;5.30;95.00;;;;;;4932537;29;20744;-45
2023/12/06 12:50:33;;;;;;;8.50;6.22;;;5.20;95.00;;;;;;4929607;29;20607;-47
2023/12/06 12:53:02;;;;;;;11.57;6.57;;;5.20;94.80;;;;;;4931446;29;20216;-47
2023/12/06 12:55:30;;;;;;;9.00;6.25;;;5.20;94.80;;;;;;4932381;29;20689;-44
2023/12/06 12:57:59;;;;;;;7.72;6.05;;;5.30;94.70;;;;;;4926276;29;20230;-45
2023/12/06 13:00:30;;;;;;;9.00;6.03;;;5.20;94.50;;;;;;4932845;29;20197;-44
2023/12/06 13:02:58;;;;;;;7.93;6.03;;;5.20;95.00;;;;;;4928920;29;20220;-45
2023/12/06 13:05:28;;;;;;;10.70;6.00;;;5.20;94.50;;;;;;4921736;29;20193;-44
2023/12/06 13:07:59;;;;;;;6.22;5.60;;;5.20;94.40;;;;;;4932288;29;20225;-44
2023/12/06 13:10:29;;;;;;;8.18;6.00;;;5.20;94.40;;;;;;4932684;29;20196;-43